createdAt,value
2023-05-05T00:02:34.436Z,100875.38
2023-05-05T00:05:36.980Z,100876.66
2023-05-05T00:08:40.106Z,100872.63
2023-05-05T00:11:42.473Z,100876.69
2023-05-05T00:14:44.854Z,100872.09
2023-05-05T00:17:47.531Z,100864.50
2023-05-05T00:20:50.117Z,100860.28
2023-05-05T00:23:52.540Z,100860.53
2023-05-05T00:26:54.941Z,100873.59
2023-05-05T00:29:57.655Z,100860.19
2023-05-05T00:33:00.333Z,100874.84
2023-05-05T00:36:03.545Z,100873.84
2023-05-05T00:39:06.244Z,100874.69
2023-05-05T00:42:09.520Z,100877.72
2023-05-05T00:45:14.336Z,100858.47
2023-05-05T00:48:17.827Z,100869.13
2023-05-05T00:51:26.962Z,100872.72
2023-05-05T00:54:29.808Z,100872.69
2023-05-05T00:57:33.236Z,100846.44
2023-05-05T01:00:36.732Z,100870.91
2023-05-05T01:03:41.508Z,100849.69
2023-05-05T01:07:09.104Z,100877.75
2023-05-05T01:10:23.914Z,100872.34
2023-05-05T01:13:48.469Z,100864.31
2023-05-05T01:16:59.169Z,100866.53
2023-05-05T01:20:12.549Z,100865.13
2023-05-05T01:23:43.672Z,100852.72
2023-05-05T01:26:59.566Z,100865.34
2023-05-05T01:30:42.509Z,100856.91
2023-05-05T01:33:50.356Z,100864.34
2023-05-05T01:37:04.753Z,100862.53
2023-05-05T01:40:10.613Z,100848.88
2023-05-05T01:43:17.790Z,100856.91
2023-05-05T01:46:23.465Z,100863.69
2023-05-05T01:49:27.240Z,100846.47
2023-05-05T01:52:30.055Z,100860.88
2023-05-05T01:55:33.679Z,100861.28
2023-05-05T01:58:38.187Z,100849.03
2023-05-05T02:01:44.771Z,100849.16
2023-05-05T02:04:49.347Z,100849.38
2023-05-05T02:07:57.007Z,100838.50
2023-05-05T02:11:00.846Z,100846.88
2023-05-05T02:14:04.862Z,100850.09
2023-05-05T02:17:08.966Z,100834.00
2023-05-05T02:20:14.052Z,100843.84
2023-05-05T02:23:16.752Z,100840.56
2023-05-05T02:26:23.038Z,100848.97
2023-05-05T02:29:33.202Z,100860.19
2023-05-05T02:32:53.670Z,100835.66
2023-05-05T02:35:58.500Z,100844.09
2023-05-05T02:39:07.352Z,100842.81
2023-05-05T02:42:19.662Z,100849.00
2023-05-05T02:45:26.975Z,100836.75
2023-05-05T02:48:29.827Z,100856.81
2023-05-05T02:51:36.204Z,100860.63
2023-05-05T02:54:43.429Z,100847.91
2023-05-05T02:58:04.837Z,100833.88
2023-05-05T03:01:38.679Z,100856.59
2023-05-05T03:04:47.099Z,100861.59
2023-05-05T03:08:14.079Z,100838.06
2023-05-05T03:11:45.099Z,100850.53
2023-05-05T03:14:51.884Z,100835.09
2023-05-05T03:17:56.640Z,100846.88
2023-05-05T03:21:07.914Z,100847.97
2023-05-05T03:24:19.791Z,100860.19
2023-05-05T03:27:30.933Z,100852.69
2023-05-05T03:30:38.166Z,100829.94
2023-05-05T03:33:41.414Z,100849.84
2023-05-05T03:36:43.888Z,100840.56
2023-05-05T03:39:48.887Z,100848.84
2023-05-05T03:42:51.777Z,100842.41
2023-05-05T03:45:54.558Z,100832.13
2023-05-05T03:48:57.714Z,100848.47
2023-05-05T03:52:02.367Z,100860.16
2023-05-05T03:55:05.598Z,100849.31
2023-05-05T03:58:08.182Z,100864.19
2023-05-05T04:01:10.977Z,100875.09
2023-05-05T04:04:13.704Z,100870.97
2023-05-05T04:07:16.713Z,100872.81
2023-05-05T04:10:19.671Z,100874.94
2023-05-05T04:13:22.136Z,100858.09
2023-05-05T04:16:24.790Z,100861.88
2023-05-05T04:19:27.738Z,100879.22
2023-05-05T04:22:30.332Z,100864.56
2023-05-05T04:25:33.024Z,100872.38
2023-05-05T04:28:36.029Z,100874.03
2023-05-05T04:31:38.744Z,100884.25
2023-05-05T04:34:41.640Z,100869.63
2023-05-05T04:37:44.216Z,100887.38
2023-05-05T04:40:46.929Z,100891.22
2023-05-05T04:43:49.864Z,100880.59
2023-05-05T04:46:52.485Z,100893.84
2023-05-05T04:49:56.134Z,100883.22
2023-05-05T04:52:58.862Z,100884.63
2023-05-05T04:56:01.754Z,100889.28
2023-05-05T04:59:04.877Z,100895.28
2023-05-05T05:02:07.522Z,100891.91
2023-05-05T05:05:10.642Z,100884.31
2023-05-05T05:08:15.548Z,100911.44
2023-05-05T05:11:18.170Z,100911.06
2023-05-05T05:14:20.910Z,100905.75
2023-05-05T05:17:25.057Z,100902.94
2023-05-05T05:20:30.742Z,100904.59
2023-05-05T05:23:33.405Z,100898.19
2023-05-05T05:26:36.200Z,100919.06
2023-05-05T05:29:39.675Z,100897.78
2023-05-05T05:32:42.741Z,100904.25
2023-05-05T05:35:46.098Z,100913.88
2023-05-05T05:38:49.298Z,100911.06
2023-05-05T05:41:52.119Z,100912.47
2023-05-05T05:44:54.895Z,100933.53
2023-05-05T05:47:57.359Z,100935.75
2023-05-05T05:51:00.187Z,100930.28
2023-05-05T05:54:03.017Z,100938.47
2023-05-05T05:57:07.511Z,100919.97
2023-05-05T06:00:11.174Z,100915.75
2023-05-05T06:03:19.888Z,100923.72
2023-05-05T06:06:22.748Z,100920.84
2023-05-05T06:09:25.969Z,100929.50
2023-05-05T06:12:30.501Z,100924.44
2023-05-05T06:15:33.551Z,100932.78
2023-05-05T06:18:38.921Z,100932.72
2023-05-05T06:21:41.458Z,100930.56
2023-05-05T06:24:45.167Z,100915.75
2023-05-05T06:27:48.154Z,100922.06
2023-05-05T06:30:50.871Z,100924.59
2023-05-05T06:33:53.718Z,100912.22
2023-05-05T06:36:56.173Z,100910.06
2023-05-05T06:39:59.020Z,100915.63
2023-05-05T06:43:01.929Z,100913.91
2023-05-05T06:46:10.927Z,100911.81
2023-05-05T06:49:13.655Z,100907.72
2023-05-05T06:52:16.455Z,100913.78
2023-05-05T06:55:19.137Z,100902.03
2023-05-05T06:58:21.790Z,100910.97
2023-05-05T07:01:24.229Z,100912.47
2023-05-05T07:04:27.149Z,100901.28
2023-05-05T07:07:29.640Z,100904.63
2023-05-05T07:10:32.946Z,100909.69
2023-05-05T07:13:36.471Z,100912.09
2023-05-05T07:16:39.327Z,100910.91
2023-05-05T07:19:41.927Z,100915.38
2023-05-05T07:22:44.631Z,100893.81
2023-05-05T07:25:47.287Z,100905.75
2023-05-05T07:28:52.123Z,100906.50
2023-05-05T07:31:55.015Z,100898.28
2023-05-05T07:34:57.727Z,100905.25
2023-05-05T07:38:00.867Z,100905.00
2023-05-05T07:41:03.763Z,100899.41
2023-05-05T07:44:07.095Z,100877.47
2023-05-05T07:47:10.368Z,100896.09
2023-05-05T07:50:13.298Z,100901.09
2023-05-05T07:53:16.041Z,100892.66
2023-05-05T07:56:19.314Z,100897.66
2023-05-05T07:59:23.043Z,100903.19
2023-05-05T08:02:25.774Z,100902.66
2023-05-05T08:05:28.523Z,100901.31
2023-05-05T08:08:31.540Z,100891.97
2023-05-05T08:11:34.091Z,100898.63
2023-05-05T08:14:36.647Z,100894.56
2023-05-05T08:17:46.847Z,100900.88
2023-05-05T08:20:49.359Z,100894.41
2023-05-05T08:23:51.774Z,100890.41
2023-05-05T08:26:55.641Z,100886.13
2023-05-05T08:29:58.676Z,100886.44
2023-05-05T08:33:01.575Z,100882.13
2023-05-05T08:36:05.424Z,100876.28
2023-05-05T08:39:07.905Z,100898.69
2023-05-05T08:42:11.125Z,100890.91
2023-05-05T08:45:13.763Z,100893.66
2023-05-05T08:48:20.395Z,100891.44
2023-05-05T08:51:28.338Z,100893.53
2023-05-05T08:54:35.297Z,100874.34
2023-05-05T08:57:58.386Z,100872.94
2023-05-05T09:01:01.808Z,100884.59
2023-05-05T09:04:05.214Z,100884.66
2023-05-05T09:07:09.043Z,100875.94
2023-05-05T09:10:12.120Z,100875.75
2023-05-05T09:13:17.012Z,100882.53
2023-05-05T09:16:19.686Z,100869.47
2023-05-05T09:19:22.186Z,100856.84
2023-05-05T09:22:34.650Z,100864.13
2023-05-05T09:25:38.269Z,100852.31
2023-05-05T09:28:51.712Z,100858.66
2023-05-05T09:32:08.668Z,100840.97
2023-05-05T09:35:11.834Z,100863.06
2023-05-05T09:38:15.136Z,100842.06
2023-05-05T09:41:37.129Z,100851.69
2023-05-05T09:44:40.790Z,100845.44
2023-05-05T09:47:46.390Z,100846.28
2023-05-05T09:50:48.939Z,100838.66
2023-05-05T09:53:51.430Z,100844.91
2023-05-05T09:56:57.565Z,100848.75
2023-05-05T10:00:02.107Z,100828.50
2023-05-05T10:03:09.606Z,100839.72
2023-05-05T10:06:12.101Z,100836.00
2023-05-05T10:09:15.501Z,100847.13
2023-05-05T10:12:18.369Z,100838.16
2023-05-05T10:15:22.319Z,100833.75
2023-05-05T10:18:32.013Z,100832.94
2023-05-05T10:21:39.813Z,100829.41
2023-05-05T10:24:50.868Z,100835.03
2023-05-05T10:27:56.783Z,100812.56
2023-05-05T10:31:02.173Z,100817.09
2023-05-05T10:34:09.059Z,100815.16
2023-05-05T10:37:11.727Z,100804.13
2023-05-05T10:40:15.357Z,100801.53
2023-05-05T10:43:18.256Z,100795.31
2023-05-05T10:46:22.335Z,100799.47
2023-05-05T10:49:36.963Z,100796.53
2023-05-05T10:52:48.539Z,100801.91
2023-05-05T10:56:03.053Z,100800.56
2023-05-05T10:59:37.522Z,100795.41
2023-05-05T11:02:40.470Z,100787.69
2023-05-05T11:06:09.549Z,100775.63
2023-05-05T11:09:27.971Z,100773.38
2023-05-05T11:12:32.502Z,100776.00
2023-05-05T11:15:37.815Z,100763.25
2023-05-05T11:18:44.675Z,100769.63
2023-05-05T11:22:02.307Z,100763.06
2023-05-05T11:25:42.184Z,100752.97
2023-05-05T11:29:04.948Z,100753.06
2023-05-05T11:32:12.431Z,100748.50
2023-05-05T11:35:15.591Z,100723.69
2023-05-05T11:38:19.685Z,100741.56
2023-05-05T11:41:44.089Z,100740.25
2023-05-05T11:44:46.639Z,100741.63
2023-05-05T11:47:49.110Z,100739.09
2023-05-05T11:50:51.890Z,100730.88
2023-05-05T11:53:54.487Z,100723.03
2023-05-05T11:57:00.981Z,100715.66
2023-05-05T12:00:08.511Z,100707.75
2023-05-05T12:03:11.759Z,100704.81
2023-05-05T12:06:14.379Z,100720.06
2023-05-05T12:09:18.335Z,100715.56
2023-05-05T12:12:21.836Z,100709.34
2023-05-05T12:15:33.568Z,100709.59
2023-05-05T12:18:36.629Z,100708.75
2023-05-05T12:21:39.352Z,100692.19
2023-05-05T12:24:41.867Z,100705.22
2023-05-05T12:27:52.051Z,100705.31
2023-05-05T12:30:59.072Z,100700.41
2023-05-05T12:34:03.897Z,100681.09
2023-05-05T12:37:06.890Z,100687.22
2023-05-05T12:40:42.340Z,100688.97
2023-05-05T12:43:44.841Z,100686.47
2023-05-05T12:46:48.646Z,100682.84
2023-05-05T12:49:52.138Z,100676.59
2023-05-05T12:52:54.602Z,100677.47
2023-05-05T12:55:57.094Z,100660.50
2023-05-05T12:59:01.636Z,100679.31
2023-05-05T13:02:06.006Z,100666.97
2023-05-05T13:05:09.161Z,100658.66
2023-05-05T13:08:11.839Z,100640.66
2023-05-05T13:11:14.335Z,100632.88
2023-05-05T13:14:16.778Z,100640.50
2023-05-05T13:17:19.676Z,100624.78
2023-05-05T13:20:22.094Z,100630.81
2023-05-05T13:23:25.875Z,100625.72
2023-05-05T13:26:28.714Z,100619.28
2023-05-05T13:29:31.940Z,100618.72
2023-05-05T13:32:34.471Z,100624.84
2023-05-05T13:35:37.055Z,100611.88
2023-05-05T13:38:39.784Z,100613.88
2023-05-05T13:41:42.347Z,100626.84
2023-05-05T13:44:44.847Z,100618.88
2023-05-05T13:47:48.105Z,100606.13
2023-05-05T13:50:50.988Z,100601.09
2023-05-05T13:53:54.005Z,100598.41
2023-05-05T13:56:56.484Z,100608.38
2023-05-05T13:59:58.953Z,100607.00
2023-05-05T14:03:01.852Z,100600.03
2023-05-05T14:06:04.609Z,100596.06
2023-05-05T14:09:08.038Z,100601.19
2023-05-05T14:12:10.683Z,100594.59
2023-05-05T14:15:13.649Z,100589.13
2023-05-05T14:18:16.633Z,100591.09
2023-05-05T14:21:19.223Z,100579.88
2023-05-05T14:24:21.645Z,100595.59
2023-05-05T14:27:24.149Z,100583.59
2023-05-05T14:30:26.673Z,100588.19
2023-05-05T14:33:29.334Z,100588.31
2023-05-05T14:36:31.883Z,100581.72
2023-05-05T14:39:34.406Z,100564.47
2023-05-05T14:42:37.809Z,100586.34
2023-05-05T14:45:40.538Z,100574.47
2023-05-05T14:48:43.562Z,100565.50
2023-05-05T14:51:46.357Z,100570.38
2023-05-05T14:54:49.511Z,100570.75
2023-05-05T14:57:52.286Z,100559.53
2023-05-05T15:00:55.307Z,100569.06
2023-05-05T15:03:58.647Z,100568.19
2023-05-05T15:07:01.594Z,100564.25
2023-05-05T15:10:04.879Z,100568.13
2023-05-05T15:13:07.743Z,100555.66
2023-05-05T15:16:10.743Z,100561.00
2023-05-05T15:19:13.200Z,100569.22
2023-05-05T15:22:15.829Z,100564.25
2023-05-05T15:25:19.361Z,100559.09
2023-05-05T15:28:21.851Z,100550.06
2023-05-05T15:31:24.834Z,100561.84
2023-05-05T15:34:27.348Z,100554.50
2023-05-05T15:37:29.925Z,100530.50
2023-05-05T15:40:32.638Z,100553.53
2023-05-05T15:43:36.108Z,100541.09
2023-05-05T15:46:39.292Z,100537.31
2023-05-05T15:49:41.988Z,100547.38
2023-05-05T15:52:44.529Z,100534.53
2023-05-05T15:55:47.218Z,100545.47
2023-05-05T15:58:51.340Z,100525.88
2023-05-05T16:02:08.831Z,100547.59
2023-05-05T16:05:24.816Z,100537.88
2023-05-05T16:08:27.743Z,100539.78
2023-05-05T16:11:30.938Z,100535.06
2023-05-05T16:14:33.425Z,100532.72
2023-05-05T16:17:36.015Z,100517.66
2023-05-05T16:20:38.582Z,100523.97
2023-05-05T16:23:41.416Z,100523.31
2023-05-05T16:26:44.229Z,100527.94
2023-05-05T16:29:46.928Z,100522.16
2023-05-05T16:32:51.733Z,100510.13
2023-05-05T16:35:54.330Z,100520.44
2023-05-05T16:38:57.431Z,100508.13
2023-05-05T16:42:06.949Z,100522.59
2023-05-05T16:45:10.519Z,100528.00
2023-05-05T16:48:14.688Z,100520.59
2023-05-05T16:51:17.237Z,100508.44
2023-05-05T16:54:20.409Z,100505.56
2023-05-05T16:57:23.243Z,100509.28
2023-05-05T17:00:25.722Z,100512.75
2023-05-05T17:03:28.367Z,100506.03
2023-05-05T17:06:33.623Z,100500.00
2023-05-05T17:09:36.118Z,100494.97
2023-05-05T17:12:38.815Z,100499.66
2023-05-05T17:15:41.768Z,100510.19
2023-05-05T17:18:44.289Z,100493.44
2023-05-05T17:21:46.835Z,100485.72
2023-05-05T17:24:49.490Z,100514.91
2023-05-05T17:27:52.752Z,100516.13
2023-05-05T17:30:55.382Z,100491.31
2023-05-05T17:33:57.889Z,100491.97
2023-05-05T17:37:00.509Z,100490.16
2023-05-05T17:40:03.773Z,100501.53
2023-05-05T17:43:06.825Z,100498.13
2023-05-05T17:46:09.379Z,100503.09
2023-05-05T17:49:12.503Z,100514.06
2023-05-05T17:52:15.369Z,100504.59
2023-05-05T17:55:18.130Z,100506.28
2023-05-05T17:58:20.549Z,100508.91
2023-05-05T18:01:24.823Z,100516.31
2023-05-05T18:04:27.443Z,100529.41
2023-05-05T18:07:30.014Z,100514.97
2023-05-05T18:10:32.521Z,100511.03
2023-05-05T18:13:35.211Z,100520.06
2023-05-05T18:16:37.713Z,100503.22
2023-05-05T18:19:45.660Z,100509.09
2023-05-05T18:22:50.069Z,100527.34
2023-05-05T18:25:52.642Z,100526.56
2023-05-05T18:28:55.185Z,100530.59
2023-05-05T18:31:57.694Z,100541.19
2023-05-05T18:35:00.175Z,100546.75
2023-05-05T18:38:03.728Z,100537.75
2023-05-05T18:41:06.716Z,100544.06
2023-05-05T18:44:10.525Z,100549.00
2023-05-05T18:47:12.968Z,100532.50
2023-05-05T18:50:15.729Z,100544.66
2023-05-05T18:53:18.226Z,100554.13
2023-05-05T18:56:21.667Z,100552.13
2023-05-05T18:59:24.450Z,100570.13
2023-05-05T19:02:27.396Z,100567.13
2023-05-05T19:05:29.959Z,100566.53
2023-05-05T19:08:32.738Z,100579.38
2023-05-05T19:11:35.365Z,100573.47
2023-05-05T19:14:37.845Z,100577.09
2023-05-05T19:17:41.076Z,100555.28
2023-05-05T19:20:43.705Z,100566.13
2023-05-05T19:23:46.251Z,100563.59
2023-05-05T19:26:48.893Z,100573.09
2023-05-05T19:29:52.707Z,100568.06
2023-05-05T19:32:55.913Z,100563.81
2023-05-05T19:35:58.775Z,100578.78
2023-05-05T19:39:02.380Z,100562.41
2023-05-05T19:42:05.273Z,100574.81
2023-05-05T19:45:08.143Z,100575.06
2023-05-05T19:48:11.085Z,100565.88
2023-05-05T19:51:13.754Z,100586.41
2023-05-05T19:54:16.591Z,100570.13
2023-05-05T19:57:19.073Z,100558.97
2023-05-05T20:00:21.692Z,100575.59
2023-05-05T20:03:24.399Z,100580.31
2023-05-05T20:06:27.174Z,100570.59
2023-05-05T20:09:30.210Z,100581.91
2023-05-05T20:12:32.676Z,100573.56
2023-05-05T20:15:35.286Z,100564.41
2023-05-05T20:18:38.457Z,100561.59
2023-05-05T20:21:41.226Z,100577.03
2023-05-05T20:24:43.668Z,100570.94
2023-05-05T20:27:46.443Z,100568.88
2023-05-05T20:30:49.218Z,100571.00
2023-05-05T20:33:52.307Z,100577.19
2023-05-05T20:36:54.792Z,100558.59
2023-05-05T20:39:58.283Z,100559.22
2023-05-05T20:43:00.796Z,100560.16
2023-05-05T20:46:03.335Z,100567.94
2023-05-05T20:49:06.246Z,100554.84
2023-05-05T20:52:08.790Z,100567.03
2023-05-05T20:55:11.321Z,100567.66
2023-05-05T20:58:13.776Z,100555.13
2023-05-05T21:01:16.382Z,100552.63
2023-05-05T21:04:19.049Z,100565.63
2023-05-05T21:07:21.543Z,100567.91
2023-05-05T21:10:24.104Z,100539.44
2023-05-05T21:13:26.562Z,100557.91
2023-05-05T21:16:29.015Z,100558.78
2023-05-05T21:19:31.764Z,100569.72
2023-05-05T21:22:34.288Z,100554.78
2023-05-05T21:25:37.554Z,100541.78
2023-05-05T21:28:40.023Z,100550.09
2023-05-05T21:31:42.530Z,100537.34
2023-05-05T21:34:45.610Z,100558.41
2023-05-05T21:37:48.910Z,100558.50
2023-05-05T21:40:57.461Z,100540.84
2023-05-05T21:44:00.235Z,100547.56
2023-05-05T21:47:02.716Z,100549.28
2023-05-05T21:50:05.582Z,100537.31
2023-05-05T21:53:08.018Z,100501.72
2023-05-05T21:56:10.528Z,100527.44
2023-05-05T21:59:14.336Z,100531.41
2023-05-05T22:02:17.914Z,100531.06
2023-05-05T22:05:20.764Z,100530.56
2023-05-05T22:08:23.263Z,100536.97
2023-05-05T22:11:25.764Z,100528.28
2023-05-05T22:14:28.237Z,100532.78
2023-05-05T22:17:30.721Z,100532.91
2023-05-05T22:20:33.337Z,100549.63
2023-05-05T22:23:37.181Z,100548.91
2023-05-05T22:26:43.428Z,100548.19
2023-05-05T22:29:46.685Z,100550.09
2023-05-05T22:32:49.181Z,100545.66
2023-05-05T22:35:52.069Z,100551.38
2023-05-05T22:38:54.972Z,100535.28
2023-05-05T22:41:58.093Z,100534.31
2023-05-05T22:45:01.129Z,100549.94
2023-05-05T22:48:03.818Z,100555.75
2023-05-05T22:51:06.548Z,100556.88
2023-05-05T22:54:09.103Z,100544.09
2023-05-05T22:57:11.941Z,100554.09
2023-05-05T23:00:14.655Z,100560.44
2023-05-05T23:03:17.300Z,100542.69
2023-05-05T23:06:20.747Z,100560.47
2023-05-05T23:09:23.366Z,100560.16
2023-05-05T23:12:26.179Z,100566.97
2023-05-05T23:15:28.878Z,100542.38
2023-05-05T23:18:31.634Z,100553.75
2023-05-05T23:21:41.819Z,100544.03
2023-05-05T23:24:44.693Z,100547.97
2023-05-05T23:27:47.987Z,100550.25
2023-05-05T23:30:50.585Z,100551.59
2023-05-05T23:33:53.148Z,100524.31
2023-05-05T23:36:55.966Z,100540.59
2023-05-05T23:39:58.556Z,100548.38
2023-05-05T23:43:01.133Z,100560.22
2023-05-05T23:46:03.780Z,100540.31
2023-05-05T23:49:06.509Z,100537.34
2023-05-05T23:52:09.018Z,100540.78
2023-05-05T23:55:11.774Z,100524.78
2023-05-05T23:58:15.288Z,100539.63
